Time;durP1;ratioP1;P1;durP2;ratioP2;P2;SDS_P1;SDS_P2;PMS_P1;PMS_P2;Temp;Humidity;BMP_temperature;BMP_pressure;BME280_temperature;BME280_humidity;BME280_pressure;Samples;Min_cycle;Max_cycle;Signal;HPM_P1;HPM_P2
2023/07/29 05:05:33;;;;;;;1.85;1.75;;;16.60;99.90;;;;;;5012904;23;20241;-77
2023/07/29 05:07:59;;;;;;;1.60;1.60;;;16.80;99.90;;;;;;4998475;28;20676;-77
2023/07/29 05:10:26;;;;;;;1.40;1.40;;;17.40;99.90;;;;;;4997581;28;20686;-77
2023/07/29 05:12:53;;;;;;;1.42;1.42;;;17.40;99.90;;;;;;4997605;28;20219;-77
2023/07/29 05:15:19;;;;;;;1.23;1.23;;;17.40;99.90;;;;;;4999361;28;20227;-77
2023/07/29 05:17:46;;;;;;;1.60;1.60;;;17.40;99.90;;;;;;4996615;28;20209;-75
2023/07/29 05:20:13;;;;;;;1.40;1.40;;;17.30;99.90;;;;;;4996232;28;20209;-74
2023/07/29 05:22:41;;;;;;;3.85;1.40;;;17.30;99.90;;;;;;4995917;28;20195;-74
2023/07/29 05:25:09;;;;;;;2.00;1.90;;;17.20;99.90;;;;;;4996157;28;20223;-74
2023/07/29 05:27:35;;;;;;;2.33;2.22;;;17.10;99.90;;;;;;4996164;28;20206;-74
2023/07/29 05:30:02;;;;;;;1.80;1.80;;;17.20;99.90;;;;;;4996329;28;20202;-74
2023/07/29 05:32:29;;;;;;;1.75;1.75;;;17.50;99.90;;;;;;4995990;28;20229;-74
2023/07/29 05:34:56;;;;;;;1.95;1.92;;;18.30;99.90;;;;;;4995944;28;20246;-74
2023/07/29 05:37:23;;;;;;;1.50;1.50;;;18.60;99.90;;;;;;4995937;28;20206;-74
2023/07/29 05:39:51;;;;;;;1.52;1.52;;;19.00;99.90;;;;;;4996143;28;20206;-75
2023/07/29 05:42:17;;;;;;;1.65;1.65;;;19.50;99.90;;;;;;4996025;28;20206;-74
2023/07/29 05:44:44;;;;;;;1.30;1.30;;;20.40;99.90;;;;;;4995467;28;20218;-75
2023/07/29 05:47:11;;;;;;;1.27;1.27;;;21.40;99.90;;;;;;4995756;28;20568;-74
2023/07/29 05:49:37;;;;;;;2.17;2.08;;;22.30;99.90;;;;;;4995707;28;20206;-74
2023/07/29 05:52:04;;;;;;;1.60;1.48;;;22.90;99.90;;;;;;4995577;28;20198;-74
2023/07/29 05:54:31;;;;;;;1.67;1.67;;;23.40;99.90;;;;;;4995603;28;20222;-74
2023/07/29 05:56:59;;;;;;;1.92;1.83;;;23.80;99.90;;;;;;4995825;28;20198;-74
2023/07/29 05:59:29;;;;;;;1.95;1.85;;;24.20;99.90;;;;;;4995772;28;20207;-74
2023/07/29 06:01:56;;;;;;;1.52;1.42;;;24.70;99.90;;;;;;4995394;28;20297;-74
2023/07/29 06:04:23;;;;;;;2.00;1.90;;;24.90;99.90;;;;;;4995362;28;20219;-74
2023/07/29 06:06:50;;;;;;;1.40;1.40;;;24.50;99.90;;;;;;4995201;28;20704;-75
2023/07/29 06:09:17;;;;;;;1.90;1.90;;;24.80;99.90;;;;;;4995425;28;20202;-75
2023/07/29 06:11:44;;;;;;;1.42;1.42;;;25.10;99.90;;;;;;4995866;28;20202;-72
2023/07/29 06:14:12;;;;;;;1.50;1.42;;;24.60;99.90;;;;;;4994984;28;20234;-72
2023/07/29 06:16:38;;;;;;;1.73;1.73;;;24.40;99.90;;;;;;4995061;28;20209;-71
2023/07/29 06:19:05;;;;;;;1.30;1.30;;;24.80;99.90;;;;;;4995394;28;20206;-71
2023/07/29 06:21:32;;;;;;;1.48;1.48;;;25.40;99.90;;;;;;4995080;28;20570;-72
2023/07/29 06:23:58;;;;;;;2.55;1.75;;;26.40;99.90;;;;;;4994891;28;20218;-72
2023/07/29 06:26:25;;;;;;;1.65;1.55;;;27.50;99.90;;;;;;4995585;28;20209;-72
2023/07/29 06:28:52;;;;;;;1.55;1.55;;;29.00;99.90;;;;;;4995407;28;20202;-72
2023/07/29 06:31:20;;;;;;;1.55;1.48;;;30.10;99.90;;;;;;4994907;28;20206;-72
2023/07/29 06:33:47;;;;;;;1.38;1.38;;;31.40;99.90;;;;;;4994485;28;20685;-72
2023/07/29 06:36:13;;;;;;;1.17;1.17;;;33.10;99.90;;;;;;4994821;28;20209;-74
2023/07/29 06:38:41;;;;;;;1.40;1.40;;;34.40;99.90;;;;;;4995206;28;20210;-73
2023/07/29 06:41:08;;;;;;;1.83;1.73;;;35.50;94.80;;;;;;4994994;28;20202;-74
2023/07/29 06:43:35;;;;;;;1.50;1.50;;;35.50;90.30;;;;;;4994992;28;20214;-74
2023/07/29 06:46:01;;;;;;;1.60;1.60;;;34.50;90.50;;;;;;4994723;28;20203;-73
2023/07/29 06:48:29;;;;;;;1.45;1.42;;;33.20;93.20;;;;;;4994699;28;20202;-71
2023/07/29 06:51:00;;;;;;;1.52;1.52;;;31.90;99.90;;;;;;4994607;28;20210;-71
2023/07/29 06:53:27;;;;;;;1.85;1.83;;;30.50;99.90;;;;;;4994701;28;20292;-72
2023/07/29 06:55:53;;;;;;;1.70;1.65;;;29.70;99.90;;;;;;4994308;28;20669;-72
2023/07/29 06:58:20;;;;;;;1.77;1.67;;;29.10;99.90;;;;;;4994461;28;20210;-72
2023/07/29 07:00:47;;;;;;;1.58;1.58;;;28.70;99.90;;;;;;4994451;28;20205;-70
2023/07/29 07:03:16;;;;;;;2.20;1.98;;;;;;;;;;4994276;28;20194;-71
2023/07/29 07:05:45;;;;;;;1.48;1.48;;;;;;;;;;4994318;28;20206;-72
2023/07/29 07:08:12;;;;;;;1.70;1.70;;;;;;;;;;4994126;28;20700;-73
2023/07/29 07:10:39;;;;;;;1.45;1.45;;;;;;;;;;4994350;28;20198;-72
2023/07/29 07:13:06;;;;;;;1.77;1.77;;;;;;;;;;4994182;28;20229;-72
2023/07/29 07:15:33;;;;;;;1.85;1.85;;;;;;;;;;4994391;28;20225;-72
2023/07/29 07:18:00;;;;;;;1.80;1.80;;;;;;;;;;4994264;28;20209;-72
2023/07/29 07:20:27;;;;;;;1.85;1.85;;;;;;;;;;4994316;28;20206;-72
2023/07/29 07:22:56;;;;;;;1.30;1.30;;;;;;;;;;4994320;28;20547;-72
2023/07/29 07:25:23;;;;;;;1.55;1.50;;;;;;;;;;4994092;28;20249;-72
2023/07/29 07:27:52;;;;;;;1.60;1.60;;;29.70;99.90;;;;;;4994217;28;20202;-73
2023/07/29 07:30:19;;;;;;;1.55;1.55;;;29.80;99.90;;;;;;4998069;28;20220;-72
2023/07/29 07:32:46;;;;;;;1.33;1.33;;;30.70;99.90;;;;;;4998424;28;20198;-73
2023/07/29 07:35:12;;;;;;;1.85;1.75;;;30.70;99.90;;;;;;4998139;28;20261;-71
2023/07/29 07:37:39;;;;;;;1.80;1.80;;;30.60;99.90;;;;;;4998156;28;20202;-73
2023/07/29 07:40:08;;;;;;;2.47;1.83;;;31.10;99.90;;;;;;4998198;28;20208;-72
2023/07/29 07:42:35;;;;;;;1.40;1.30;;;31.80;99.90;;;;;;4997982;28;20228;-72
2023/07/29 07:45:02;;;;;;;1.52;1.52;;;32.50;99.90;;;;;;4997864;28;20225;-72
2023/07/29 07:47:28;;;;;;;1.42;1.42;;;33.10;99.90;;;;;;4997979;28;20202;-72
2023/07/29 07:49:55;;;;;;;1.77;1.67;;;33.20;99.90;;;;;;4998361;28;20206;-70
2023/07/29 07:52:22;;;;;;;1.58;1.58;;;32.50;99.90;;;;;;4997812;28;20204;-71
2023/07/29 07:54:53;;;;;;;1.63;1.60;;;31.60;99.90;;;;;;4997452;28;20721;-71
2023/07/29 07:57:22;;;;;;;1.60;1.60;;;30.20;99.90;;;;;;4997862;28;20186;-71
2023/07/29 07:59:48;;;;;;;1.10;1.10;;;29.10;99.90;;;;;;4998080;28;20206;-72
2023/07/29 08:02:15;;;;;;;1.50;1.50;;;28.20;99.90;;;;;;4998470;28;20190;-72
2023/07/29 08:04:42;;;;;;;1.17;1.17;;;27.50;99.90;;;;;;4998533;28;20572;-72
2023/07/29 08:07:09;;;;;;;1.30;1.30;;;26.80;99.90;;;;;;4999261;28;20218;-72
2023/07/29 08:09:35;;;;;;;1.90;1.85;;;26.20;99.90;;;;;;4997718;28;20223;-73
2023/07/29 08:12:02;;;;;;;2.15;2.03;;;;;;;;;;4997362;28;20565;-73
2023/07/29 08:14:31;;;;;;;2.72;2.53;;;;;;;;;;4997416;28;20233;-75
2023/07/29 08:16:58;;;;;;;2.60;2.50;;;;;;;;;;4997654;28;20205;-73
2023/07/29 08:19:25;;;;;;;2.55;2.45;;;;;;;;;;5000677;28;20206;-73
2023/07/29 08:21:52;;;;;;;2.30;2.20;;;;;;;;;;4997483;28;20202;-74
2023/07/29 08:24:19;;;;;;;2.20;2.10;;;;;;;;;;4997369;28;20222;-73
2023/07/29 08:26:46;;;;;;;2.33;2.22;;;;;;;;;;4997266;28;20209;-75
2023/07/29 08:29:13;;;;;;;2.08;1.90;;;;;;;;;;4997475;28;20198;-73
2023/07/29 08:31:42;;;;;;;1.85;1.75;;;;;;;;;;4997202;28;20602;-72
2023/07/29 08:34:09;;;;;;;2.50;1.50;;;;;;;;;;4997197;28;20226;-74
2023/07/29 08:36:36;;;;;;;2.15;2.03;;;;;;;;;;4997129;28;20213;-74
2023/07/29 08:39:03;;;;;;;1.83;1.73;;;;;;;;;;4997175;28;20574;-73
2023/07/29 08:41:33;;;;;;;1.73;1.65;;;;;;;;;;4998173;28;20552;-73
2023/07/29 08:44:03;;;;;;;2.17;1.60;;;;;;;;;;4997712;28;20218;-74
2023/07/29 08:46:30;;;;;;;2.00;1.90;;;;;;;;;;4996665;28;20691;-73
2023/07/29 08:48:59;;;;;;;2.03;1.92;;;;;;;;;;4997271;28;20207;-76
2023/07/29 08:51:26;;;;;;;1.70;1.70;;;;;;;;;;4997127;28;20209;-74
2023/07/29 08:53:54;;;;;;;1.90;1.88;;;;;;;;;;4996709;28;20230;-74
2023/07/29 08:56:21;;;;;;;1.90;1.80;;;;;;;;;;4996438;28;20570;-74
2023/07/29 08:58:48;;;;;;;1.73;1.63;;;;;;;;;;4996871;28;20208;-75
2023/07/29 09:01:16;;;;;;;1.80;1.70;;;;;;;;;;4996977;28;20669;-75
2023/07/29 09:03:43;;;;;;;1.48;1.48;;;;;;;;;;4996716;28;20245;-75
2023/07/29 09:06:12;;;;;;;1.30;1.30;;;;;;;;;;4997706;28;20217;-76
2023/07/29 09:08:39;;;;;;;1.75;1.75;;;;;;;;;;4996495;28;20187;-77
2023/07/29 09:11:06;;;;;;;1.50;1.50;;;;;;;;;;4996576;28;20563;-77
2023/07/29 09:13:34;;;;;;;1.65;1.55;;;;;;;;;;4996237;28;20313;-73
2023/07/29 09:16:01;;;;;;;1.50;1.50;;;;;;;;;;4996010;28;20685;-74
2023/07/29 09:18:29;;;;;;;1.40;1.30;;;;;;;;;;4996012;28;20688;-75
2023/07/29 09:21:00;;;;;;;1.30;1.30;;;;;;;;;;4996302;28;20198;-75
2023/07/29 09:23:28;;;;;;;1.60;1.60;;;;;;;;;;4995960;28;20222;-75
2023/07/29 09:26:01;;;;;;;1.50;1.50;;;;;;;;;;4996134;28;20225;-76
2023/07/29 09:28:33;;;;;;;1.67;1.67;;;;;;;;;;4996271;28;20190;-76
2023/07/29 09:31:00;;;;;;;1.63;1.63;;;;;;;;;;4996029;28;20190;-76
2023/07/29 09:33:28;;;;;;;1.65;1.55;;;;;;;;;;4995433;28;20225;-77
2023/07/29 09:35:55;;;;;;;2.00;1.90;;;;;;;;;;4995806;28;20218;-77
2023/07/29 09:38:29;;;;;;;2.10;2.00;;;;;;;;;;4995807;28;20206;-77
2023/07/29 09:40:56;;;;;;;2.15;1.95;;;;;;;;;;4995945;28;20197;-77
2023/07/29 09:43:26;;;;;;;1.50;1.50;;;;;;;;;;4995438;28;20229;-73
2023/07/29 09:45:54;;;;;;;1.60;1.50;;;;;;;;;;4996050;28;20670;-74
2023/07/29 09:48:23;;;;;;;1.40;1.40;;;;;;;;;;4995752;28;20238;-74
2023/07/29 09:50:49;;;;;;;1.58;1.48;;;;;;;;;;4995043;28;20650;-75
2023/07/29 09:53:16;;;;;;;1.50;1.50;;;;;;;;;;4995733;28;20248;-74
2023/07/29 09:55:50;;;;;;;1.50;1.50;;;;;;;;;;4995843;28;20209;-74
2023/07/29 09:58:20;;;;;;;1.60;1.58;;;;;;;;;;4997607;28;20222;-74
2023/07/29 10:00:47;;;;;;;1.70;1.60;;;;;;;;;;4996087;28;20193;-75
2023/07/29 10:03:15;;;;;;;1.80;1.70;;;;;;;;;;4995372;28;20213;-74
2023/07/29 10:05:43;;;;;;;1.73;1.50;;;;;;;;;;4995278;28;20676;-74
2023/07/29 10:08:12;;;;;;;1.63;1.52;;;;;;;;;;4995540;28;20190;-75
2023/07/29 10:10:39;;;;;;;1.67;1.58;;;;;;;;;;4995247;28;20203;-75
2023/07/29 10:13:08;;;;;;;1.73;1.67;;;;;;;;;;4995098;28;20206;-75
2023/07/29 10:15:36;;;;;;;1.50;1.50;;;;;;;;;;4995043;28;20228;-75
2023/07/29 10:18:03;;;;;;;1.50;1.40;;;;;;;;;;4995403;28;20206;-76
2023/07/29 10:20:31;;;;;;;1.52;1.52;;;;;;;;;;4994988;28;20198;-74
2023/07/29 10:23:00;;;;;;;1.27;1.27;;;;;;;;;;4994713;28;20229;-74
2023/07/29 10:25:32;;;;;;;1.33;1.33;;;;;;;;;;4994823;28;20222;-75
2023/07/29 10:28:06;;;;;;;1.42;1.42;;;;;;;;;;4994625;28;20186;-75
2023/07/29 10:30:34;;;;;;;1.25;1.25;;;;;;;;;;4994873;28;20673;-75
2023/07/29 10:33:03;;;;;;;1.90;1.80;;;;;;;;;;4994698;28;20670;-75
2023/07/29 10:35:30;;;;;;;1.83;1.73;;;;;;;;;;4994975;28;20218;-73
2023/07/29 15:31:35;;;;;;;1.77;1.77;;;;;;;;;;5165538;23;20320;-71
2023/07/29 15:34:02;;;;;;;1.55;1.50;;;;;;;;;;4993934;28;20216;-73
2023/07/29 15:36:29;;;;;;;1.60;1.60;;;;;;;;;;4993797;28;20230;-71
2023/07/29 15:38:56;;;;;;;2.00;1.90;;;;;;;;;;4993849;28;20673;-71
2023/07/29 15:41:23;;;;;;;1.60;1.60;;;;;;;;;;4994382;28;20222;-72
2023/07/29 15:43:50;;;;;;;2.40;2.20;;;;;;;;;;4993982;28;20202;-72
2023/07/29 15:46:17;;;;;;;2.08;1.98;;;;;;;;;;5017355;23;20245;-75
2023/07/29 15:48:46;;;;;;;2.10;2.00;;;;;;;;;;4994156;28;20206;-76
2023/07/29 15:51:13;;;;;;;1.67;1.67;;;;;;;;;;4997775;28;20280;-76
2023/07/29 15:53:40;;;;;;;2.25;1.50;;;;;;;;;;4997678;28;20688;-76
2023/07/29 15:56:07;;;;;;;2.25;1.80;;;;;;;;;;4997961;28;20222;-76
2023/07/29 15:58:34;;;;;;;1.80;1.80;;;;;;;;;;4997788;28;20205;-76
2023/07/29 16:01:01;;;;;;;2.08;1.98;;;;;;;;;;4997835;28;20216;-75
2023/07/29 16:03:28;;;;;;;1.60;1.60;;;;;;;;;;4997840;28;20210;-75
2023/07/29 16:05:57;;;;;;;1.60;1.60;;;;;;;;;;4997691;28;20226;-74
2023/07/29 16:08:24;;;;;;;1.38;1.38;;;;;;;;;;4997669;28;20202;-73
2023/07/29 16:10:51;;;;;;;1.40;1.40;;;;;;;;;;4997629;28;20217;-75
2023/07/29 16:13:19;;;;;;;1.20;1.20;;;;;;;;;;4998096;28;20234;-75
2023/07/29 16:15:46;;;;;;;1.35;1.35;;;;;;;;;;4997398;28;20226;-75
2023/07/29 16:18:13;;;;;;;1.42;1.42;;;;;;;;;;4997645;28;20213;-74
2023/07/29 16:20:40;;;;;;;1.15;1.15;;;;;;;;;;4997531;28;20199;-75
2023/07/29 16:23:08;;;;;;;1.20;1.20;;;;;;;;;;4997256;28;20662;-75
2023/07/29 16:25:36;;;;;;;1.55;1.40;;;;;;;;;;4997395;28;20608;-75
2023/07/29 16:28:03;;;;;;;1.40;1.40;;;;;;;;;;4997380;28;20206;-75
2023/07/29 16:30:30;;;;;;;1.63;1.52;;;;;;;;;;4997219;28;20213;-75
2023/07/29 16:32:57;;;;;;;1.55;1.45;;;;;;;;;;4997363;28;20202;-75
2023/07/29 16:35:24;;;;;;;1.20;1.20;;;;;;;;;;4997072;28;20226;-75
2023/07/29 16:37:51;;;;;;;1.48;1.48;;;;;;;;;;4997227;28;20252;-75
2023/07/29 16:40:19;;;;;;;1.88;1.77;;;;;;;;;;4997095;28;20206;-75
2023/07/29 16:42:46;;;;;;;2.00;1.90;;;;;;;;;;4997084;28;20203;-75
2023/07/29 16:45:13;;;;;;;1.70;1.70;;;;;;;;;;4996836;28;20226;-75
2023/07/29 16:47:40;;;;;;;2.17;2.08;;;;;;;;;;4997064;28;20206;-75
2023/07/29 16:50:08;;;;;;;1.85;1.80;;;;;;;;;;4997014;28;20202;-75
2023/07/29 16:52:35;;;;;;;2.00;1.90;;;;;;;;;;4996990;28;20198;-75
2023/07/29 16:55:02;;;;;;;1.85;1.75;;;;;;;;;;4996773;28;20226;-75
2023/07/29 16:57:31;;;;;;;1.85;1.85;;;;;;;;;;4996767;28;20202;-76
2023/07/29 16:59:58;;;;;;;1.77;1.77;;;;;;;;;;4997475;28;20224;-76
2023/07/29 17:02:25;;;;;;;1.70;1.70;;;;;;;;;;4995311;28;20206;-76
2023/07/29 17:04:52;;;;;;;1.77;1.73;;;;;;;;;;4996654;28;20230;-75
2023/07/29 17:07:19;;;;;;;2.00;1.90;;;;;;;;;;4996926;28;20206;-76
2023/07/29 17:09:46;;;;;;;1.88;1.88;;;;;;;;;;4996581;28;20202;-76
2023/07/29 17:12:13;;;;;;;2.03;2.03;;;;;;;;;;4996520;28;20198;-75
2023/07/29 17:14:42;;;;;;;2.13;2.03;;;;;;;;;;4996190;28;20625;-75
2023/07/29 17:17:09;;;;;;;1.60;1.60;;;;;;;;;;4996435;28;20206;-76
2023/07/29 17:19:36;;;;;;;1.92;1.92;;;;;;;;;;4996864;28;20554;-75
2023/07/29 17:22:03;;;;;;;1.90;1.80;;;;;;;;;;4996537;28;20198;-76
2023/07/29 17:24:30;;;;;;;1.98;1.88;;;;;;;;;;4996293;28;20222;-75
2023/07/29 17:26:57;;;;;;;1.70;1.60;;;;;;;;;;4996779;28;20202;-75
2023/07/29 17:29:25;;;;;;;2.38;2.28;;;;;;;;;;4996142;28;20209;-74
2023/07/29 17:31:53;;;;;;;2.60;2.00;;;;;;;;;;4996297;28;20206;-75
2023/07/29 17:34:21;;;;;;;2.08;1.98;;;;;;;;;;4996005;28;20670;-73
2023/07/29 17:36:49;;;;;;;1.55;1.55;;;;;;;;;;4996475;28;20215;-74
2023/07/29 17:39:16;;;;;;;2.30;2.20;;;;;;;;;;4996323;28;20198;-74
2023/07/29 17:41:43;;;;;;;2.20;2.10;;;;;;;;;;4996205;28;20217;-75
2023/07/29 17:44:10;;;;;;;1.75;1.75;;;;;;;;;;4996308;28;20280;-74
2023/07/29 17:46:37;;;;;;;1.67;1.67;;;;;;;;;;4996487;28;20206;-75
2023/07/29 17:49:05;;;;;;;2.20;2.20;;;;;;;;;;4996153;28;20669;-75
2023/07/29 17:51:33;;;;;;;2.08;2.00;;;;;;;;;;4996872;28;20350;-75
2023/07/29 17:54:00;;;;;;;2.17;2.08;;;;;;;;;;4996454;28;20789;-75
2023/07/29 17:56:28;;;;;;;2.10;2.10;;;;;;;;;;4996643;28;20229;-75
2023/07/29 17:58:55;;;;;;;2.28;2.17;;;;;;;;;;4997219;28;20301;-76
2023/07/29 18:01:22;;;;;;;2.20;2.10;;;;;;;;;;4997347;28;20217;-76
2023/07/29 18:03:49;;;;;;;1.98;1.95;;;;;;;;;;4997682;28;20213;-76
2023/07/29 18:06:18;;;;;;;2.20;2.10;;;;;;;;;;5018105;28;20206;-77
2023/07/29 18:08:45;;;;;;;2.30;2.20;;;;;;;;;;5018260;28;20190;-76
2023/07/29 18:11:14;;;;;;;2.05;2.05;;;;;;;;;;5017604;28;20186;-76
2023/07/29 18:13:41;;;;;;;4.80;2.50;;;;;;;;;;5017447;28;20186;-76
2023/07/29 18:16:08;;;;;;;2.10;2.00;;;;;;;;;;5017137;28;20225;-75
2023/07/29 18:18:35;;;;;;;2.53;2.42;;;;;;;;;;5016783;28;20203;-76
2023/07/29 18:21:02;;;;;;;2.58;2.42;;;;;;;;;;4996943;28;20202;-76
2023/07/29 18:23:31;;;;;;;2.30;2.20;;;;;;;;;;4996083;28;20225;-76
2023/07/29 18:25:58;;;;;;;2.20;2.10;;;;;;;;;;4995132;28;20745;-76
2023/07/29 18:28:25;;;;;;;2.38;2.28;;;;;;;;;;4995339;28;20209;-76
2023/07/29 18:30:52;;;;;;;2.35;2.25;;;;;;;;;;4995403;28;20206;-76
2023/07/29 18:33:19;;;;;;;2.50;2.40;;;;;;;;;;4995213;28;20204;-76
2023/07/29 18:35:46;;;;;;;2.03;1.92;;;;;;;;;;4995085;28;20226;-76
2023/07/29 18:38:13;;;;;;;1.95;1.90;;;;;;;;;;4995124;28;20218;-75
2023/07/29 18:40:43;;;;;;;2.30;2.20;;;;;;;;;;4999761;28;20206;-75
2023/07/29 18:43:10;;;;;;;2.15;2.05;;;;;;;;;;5000833;28;20553;-76
2023/07/29 18:45:37;;;;;;;2.30;2.20;;;;;;;;;;4996367;28;20601;-75
2023/07/29 18:48:05;;;;;;;2.22;1.95;;;;;;;;;;4996998;28;20198;-75
2023/07/29 18:50:32;;;;;;;1.77;1.73;;;;;;;;;;4996779;28;20202;-75
2023/07/29 18:52:59;;;;;;;2.47;2.38;;;;;;;;;;4997066;28;20202;-77
2023/07/29 18:55:27;;;;;;;2.88;2.65;;;;;;;;;;4995033;28;20225;-75
2023/07/29 18:57:55;;;;;;;2.20;2.15;;;;;;;;;;4994607;28;20290;-76
2023/07/29 19:00:22;;;;;;;2.13;2.03;;;;;;;;;;4994687;28;20206;-76
2023/07/29 19:02:49;;;;;;;2.03;1.98;;;;;;;;;;4994180;28;20665;-76
2023/07/29 19:05:16;;;;;;;2.35;2.25;;;;;;;;;;4994357;28;20697;-74
2023/07/29 19:07:43;;;;;;;2.10;2.10;;;;;;;;;;4995393;28;20207;-75
2023/07/29 19:10:11;;;;;;;2.10;2.00;;;;;;;;;;4999507;28;20283;-75
2023/07/29 19:12:38;;;;;;;2.20;2.10;;;;;;;;;;4996472;28;20202;-76
2023/07/29 19:15:08;;;;;;;2.03;2.03;;;;;;;;;;4995652;28;20260;-77
2023/07/29 19:17:35;;;;;;;1.85;1.75;;;;;;;;;;4995582;28;20221;-76
2023/07/29 19:20:02;;;;;;;2.03;1.98;;;;;;;;;;4996364;28;20202;-76
2023/07/29 19:22:29;;;;;;;2.20;2.10;;;;;;;;;;4996273;28;20542;-77
2023/07/29 19:24:56;;;;;;;2.08;1.98;;;;;;;;;;4995148;28;20218;-73
2023/07/29 19:27:24;;;;;;;2.00;1.90;;;;;;;;;;4995507;28;20205;-74
2023/07/29 19:29:51;;;;;;;1.48;1.48;;;;;;;;;;4995419;28;20688;-73
2023/07/29 19:32:21;;;;;;;1.95;1.85;;;;;;;;;;4995173;28;20202;-74
2023/07/29 19:34:52;;;;;;;1.88;1.80;;;;;;;;;;4995193;28;20317;-74
2023/07/29 19:37:19;;;;;;;1.92;1.83;;;;;;;;;;4995027;28;20210;-76
2023/07/29 19:39:46;;;;;;;1.70;1.70;;;;;;;;;;4994829;28;20241;-76
2023/07/29 19:42:13;;;;;;;1.67;1.60;;;;;;;;;;4994369;28;20198;-76
2023/07/29 19:44:40;;;;;;;1.92;1.83;;;;;;;;;;4993901;28;20230;-76
2023/07/29 19:47:09;;;;;;;1.40;1.40;;;;;;;;;;4994311;28;20183;-75
2023/07/29 19:49:37;;;;;;;1.50;1.50;;;;;;;;;;4995005;28;20206;-76
2023/07/29 19:52:04;;;;;;;1.45;1.45;;;;;;;;;;4994014;28;20606;-75
2023/07/29 19:54:31;;;;;;;1.55;1.55;;;;;;;;;;4994252;28;20222;-75
2023/07/29 19:56:58;;;;;;;1.38;1.38;;;;;;;;;;4994296;28;20218;-75
2023/07/29 19:59:26;;;;;;;1.63;1.63;;;;;;;;;;4994412;28;20202;-75
2023/07/29 20:01:53;;;;;;;1.67;1.67;;;;;;;;;;4994636;28;20665;-75
2023/07/29 20:04:20;;;;;;;1.85;1.75;;;;;;;;;;4994542;28;20209;-74
2023/07/29 20:06:52;;;;;;;1.63;1.63;;;;;;;;;;4994143;28;20209;-73
2023/07/29 20:09:20;;;;;;;1.52;1.52;;;;;;;;;;4993639;28;20601;-73
2023/07/29 20:11:47;;;;;;;1.77;1.67;;;;;;;;;;4994200;28;20206;-73
2023/07/29 20:14:14;;;;;;;2.10;2.00;;;;;;;;;;4994069;28;20214;-72
2023/07/29 20:16:41;;;;;;;1.50;1.50;;;;;;;;;;4994105;28;20225;-73
2023/07/29 20:19:08;;;;;;;1.30;1.30;;;;;;;;;;4994183;28;20214;-73
2023/07/29 20:21:35;;;;;;;2.03;1.92;;;;;;;;;;4994256;28;20207;-72
2023/07/29 20:24:03;;;;;;;1.88;1.85;;;;;;;;;;4994194;28;20198;-74
2023/07/29 20:26:32;;;;;;;1.77;1.77;;;;;;;;;;4994121;28;20218;-74
2023/07/29 20:28:59;;;;;;;2.22;2.13;;;;;;;;;;4995049;28;20206;-74
2023/07/29 20:31:26;;;;;;;1.70;1.60;;;;;;;;;;4994202;28;20191;-74
2023/07/29 20:33:53;;;;;;;1.65;1.65;;;;;;;;;;4993875;28;20205;-74
2023/07/29 20:36:21;;;;;;;1.85;1.75;;;;;;;;;;4996021;28;20229;-74
2023/07/29 20:38:48;;;;;;;1.33;1.33;;;;;;;;;;4997568;28;20198;-74
2023/07/29 20:41:16;;;;;;;1.80;1.73;;;;;;;;;;4997377;28;20372;-74
2023/07/29 20:43:43;;;;;;;1.70;1.60;;;;;;;;;;4997449;28;20629;-75
2023/07/29 20:46:18;;;;;;;1.50;1.50;;;;;;;;;;4996949;28;20226;-71
2023/07/29 20:48:45;;;;;;;1.52;1.52;;;;;;;;;;4997222;28;20257;-73
2023/07/29 20:51:12;;;;;;;1.55;1.55;;;;;;;;;;4997225;28;20205;-72
2023/07/29 20:53:39;;;;;;;1.40;1.40;;;;;;;;;;4997142;28;20286;-72
2023/07/29 20:56:06;;;;;;;1.63;1.63;;;;;;;;;;4997649;28;20231;-72
2023/07/29 20:58:34;;;;;;;1.70;1.70;;;;;;;;;;4997252;28;20208;-75
2023/07/29 21:01:02;;;;;;;1.95;1.90;;;;;;;;;;4996877;28;20215;-73
2023/07/29 21:03:29;;;;;;;2.17;1.60;;;;;;;;;;4997288;28;20203;-73
2023/07/29 21:05:56;;;;;;;2.10;2.00;;;;;;;;;;4996881;28;20218;-73
2023/07/29 21:08:23;;;;;;;1.90;1.90;;;;;;;;;;4997127;28;20206;-72
2023/07/29 21:10:51;;;;;;;1.67;1.67;;;;;;;;;;4996702;28;20601;-72
2023/07/29 21:13:18;;;;;;;1.77;1.67;;;;;;;;;;4997327;28;20202;-73
2023/07/29 21:15:51;;;;;;;1.60;1.60;;;;;;;;;;4996715;28;20226;-73
2023/07/29 21:18:18;;;;;;;1.60;1.50;;;;;;;;;;4996888;28;20245;-73
2023/07/29 21:20:45;;;;;;;1.50;1.50;;;;;;;;;;4997449;28;20225;-73
2023/07/29 21:23:12;;;;;;;1.92;1.83;;;;;;;;;;4997148;28;20681;-73
2023/07/29 21:25:39;;;;;;;2.05;1.95;;;;;;;;;;4996322;28;20227;-73
2023/07/29 21:28:06;;;;;;;1.63;1.63;;;;;;;;;;4996420;28;20209;-73
2023/07/29 21:30:33;;;;;;;1.92;1.90;;;;;;;;;;4996204;28;20229;-73
2023/07/29 21:33:02;;;;;;;1.92;1.83;;;;;;;;;;4996160;28;20213;-73
2023/07/29 21:35:29;;;;;;;1.58;1.58;;;;;;;;;;4996273;28;20222;-73
2023/07/29 21:37:56;;;;;;;1.50;1.50;;;;;;;;;;4995873;28;20229;-73
2023/07/29 21:40:23;;;;;;;1.58;1.48;;;;;;;;;;4995850;28;20207;-72
2023/07/29 21:42:50;;;;;;;1.35;1.33;;;;;;;;;;4995833;28;20203;-72
2023/07/29 21:45:17;;;;;;;1.65;1.65;;;;;;;;;;5018410;23;20233;-76
2023/07/29 21:47:44;;;;;;;1.42;1.42;;;;;;;;;;4994945;28;20195;-76
2023/07/29 21:50:14;;;;;;;1.27;1.27;;;;;;;;;;4995721;28;20203;-76
2023/07/29 21:52:41;;;;;;;1.20;1.20;;;;;;;;;;4995873;28;20209;-76
2023/07/29 21:55:08;;;;;;;1.38;1.38;;;;;;;;;;4995905;28;20222;-76
2023/07/29 21:57:35;;;;;;;1.30;1.30;;;;;;;;;;4995129;28;20724;-76
2023/07/29 22:00:03;;;;;;;1.33;1.33;;;;;;;;;;4995791;28;20216;-76
2023/07/29 22:02:30;;;;;;;1.15;1.15;;;;;;;;;;4995543;28;20217;-76
2023/07/29 22:04:57;;;;;;;1.88;1.50;;;;;;;;;;4995136;28;20685;-76
2023/07/29 22:07:25;;;;;;;1.30;1.30;;;;;;;;;;4995446;28;20221;-76
2023/07/29 22:09:53;;;;;;;1.30;1.30;;;;;;;;;;4995348;28;20217;-76
2023/07/29 22:12:20;;;;;;;1.90;1.33;;;;;;;;;;4995369;28;20214;-76
2023/07/29 22:14:47;;;;;;;1.27;1.27;;;;;;;;;;4995120;28;20213;-76
2023/07/29 22:17:14;;;;;;;1.58;1.48;;;;;;;;;;4995124;28;20218;-74
2023/07/29 22:19:42;;;;;;;1.40;1.40;;;;;;;;;;4995424;28;20235;-74
2023/07/29 22:22:09;;;;;;;1.30;1.30;;;;;;;;;;4995284;28;20203;-74
2023/07/29 22:24:38;;;;;;;1.38;1.38;;;;;;;;;;4995097;28;20202;-73
2023/07/29 22:27:06;;;;;;;1.17;1.17;;;;;;;;;;4995200;28;20202;-73
2023/07/29 22:29:33;;;;;;;1.15;1.15;;;;;;;;;;4995103;28;20289;-74
2023/07/29 22:32:00;;;;;;;1.35;1.35;;;;;;;;;;4995092;28;20211;-74
2023/07/29 22:34:27;;;;;;;1.60;1.60;;;;;;;;;;4994798;28;20207;-75
2023/07/29 22:36:54;;;;;;;1.35;1.30;;;;;;;;;;4995109;28;20226;-75
2023/07/29 22:39:21;;;;;;;1.27;1.27;;;;;;;;;;4994962;28;20209;-75
2023/07/29 22:41:49;;;;;;;2.25;1.50;;;;;;;;;;4994578;28;20578;-74
2023/07/29 22:44:16;;;;;;;1.23;1.23;;;;;;;;;;4994477;28;20202;-74
2023/07/29 22:46:46;;;;;;;2.03;1.95;;;;;;;;;;4994542;28;20239;-73
2023/07/29 22:49:14;;;;;;;1.42;1.42;;;;;;;;;;4994694;28;20706;-74
2023/07/29 22:51:41;;;;;;;1.75;1.75;;;;;;;;;;4995736;28;20202;-74
2023/07/29 22:54:08;;;;;;;1.50;1.50;;;;;;;;;;4996705;28;20210;-75
2023/07/29 22:56:35;;;;;;;1.50;1.50;;;;;;;;;;4996493;28;20559;-74
2023/07/29 22:59:03;;;;;;;1.77;1.77;;;;;;;;;;4996412;28;20206;-74
2023/07/29 23:01:30;;;;;;;1.50;1.50;;;;;;;;;;4994804;28;20206;-75
2023/07/29 23:03:57;;;;;;;1.70;1.60;;;;;;;;;;4994453;28;20205;-72
